Scf Baltica — A8IA5 — position and weather

sailwx.info

Track history (hours):
 
Tides and Currents Weather Stations Pressure Air Temp Water Temp Dewpoint Dewpoint Depression Visibility Wind Speed Wind Dir Waves Ship Positions

Scf Baltica

Last reported at 2014-Nov-22 08:31 UTC. Time now 2014-Nov-22 16:30 UTC.
Position N 59°36' E 023°09'.

Length 250 m; draft 14.2 m.

Type: Ship. MMSI: 636012813.

Date/timePositionNaut miles runAvg speedWind from/ knotsBaromVisibWave heightAir tempDewpointWater temp
2014-Nov-22 08:31N 59°36' E 023°09'1212.3
2014-Nov-22 07:33N 59°39' E 023°32'1512.5
2014-Nov-22 06:23N 59°43' E 023°60'1112.4
2014-Nov-22 05:31N 59°46' E 024°20'1212.4
2014-Nov-22 04:33N 59°49' E 024°43'6012.0
2014-Nov-21 23:33N 60°01' E 026°40'1211.7
2014-Nov-21 22:33N 59°59' E 027°03'  
2014-Nov-17 19:17N 60°02' E 027°18'810.4
2014-Nov-17 18:33N 59°58' E 027°05'10 9.6
2014-Nov-17 17:33N 59°59' E 026°46'10 9.7
2014-Nov-17 16:33N 59°58' E 026°27'33 9.9
2014-Nov-17 13:16N 59°50' E 025°24'11 9.8
2014-Nov-17 12:08N 59°47' E 025°02'6 9.9
2014-Nov-17 11:31N 59°46' E 024°50'9 9.8
2014-Nov-17 10:33N 59°42' E 024°33'9 9.4
2014-Nov-17 09:34N 59°34' E 024°24'6 5.7
2014-Nov-17 08:31N 59°29' E 024°31'0 0.1
2014-Nov-17 07:25N 59°29' E 024°31'0 0.0
2014-Nov-17 06:28N 59°29' E 024°31'0 0.0
2014-Nov-17 05:31N 59°29' E 024°31'0 0.0
2014-Nov-17 04:31N 59°29' E 024°31'0 0.0
2014-Nov-17 03:31N 59°29' E 024°31'0 0.0
2014-Nov-17 02:31N 59°29' E 024°31'2 1.4
2014-Nov-17 01:27N 59°30' E 024°28'2210.8
2014-Nov-16 23:24N 59°26' E 023°45'173 6.3
2014-Nov-15 20:11N 57°15' E 020°10'13 7.4
2014-Nov-15 18:26N 57°10' E 019°48'8 8.7
2014-Nov-15 17:30N 57°06' E 019°34'6 2.1
2014-Nov-15 14:27N 57°00' E 019°36'2 1.9
2014-Nov-15 13:15N 56°58' E 019°38'173 7.6
2014-Nov-14 14:33N 55°32' E 015°07'18 9.2
2014-Nov-14 12:33N 55°23' E 014°39'10 9.9
2014-Nov-14 11:33N 55°15' E 014°28'10 9.6
2014-Nov-14 10:33N 55°07' E 014°17'76 9.5
2014-Nov-14 02:33N 54°35' E 012°18'1010.4
2014-Nov-14 01:33N 54°26' E 012°10'158 8.2
2014-Nov-13 06:11N 57°03' E 011°41'6 8.9
2014-Nov-13 05:33N 57°08' E 011°37'9 9.0
2014-Nov-13 04:33N 57°16' E 011°31'10 9.4
2014-Nov-13 03:33N 57°25' E 011°25'9 8.9
2014-Nov-13 02:33N 57°32' E 011°15'9 9.1
2014-Nov-13 01:33N 57°38' E 011°03'9 9.1
2014-Nov-13 00:33N 57°45' E 010°50'8 7.8
2014-Nov-12 23:33N 57°47' E 010°36'8 8.0
2014-Nov-12 22:30N 57°46' E 010°20'22 1.8
2014-Nov-12 10:06N 57°60' E 009°47'1 1.2
2014-Nov-12 09:19N 58°00' E 009°48'  
Track history (hours):
 
Tides and Currents Weather Stations Pressure Air Temp Water Temp Dewpoint Dewpoint Depression Visibility Wind Speed Wind Dir Waves Ship Positions

Scf Baltica

Last reported at 2014-Nov-22 08:31 UTC. Time now 2014-Nov-22 16:30 UTC.
Position N 59°36' E 023°09'.

Length 250 m; draft 14.2 m.

Type: Ship. MMSI: 636012813.

Date/timePositionNaut miles runAvg speedWind from/ knotsBaromVisibWave heightAir tempDewpointWater temp
2014-Nov-22 08:31N 59°36' E 023°09'1212.3
2014-Nov-22 07:33N 59°39' E 023°32'1512.5
2014-Nov-22 06:23N 59°43' E 023°60'1112.4
2014-Nov-22 05:31N 59°46' E 024°20'1212.4
2014-Nov-22 04:33N 59°49' E 024°43'6012.0
2014-Nov-21 23:33N 60°01' E 026°40'1211.7
2014-Nov-21 22:33N 59°59' E 027°03'  
2014-Nov-17 19:17N 60°02' E 027°18'810.4
2014-Nov-17 18:33N 59°58' E 027°05'10 9.6
2014-Nov-17 17:33N 59°59' E 026°46'10 9.7
2014-Nov-17 16:33N 59°58' E 026°27'33 9.9
2014-Nov-17 13:16N 59°50' E 025°24'11 9.8
2014-Nov-17 12:08N 59°47' E 025°02'6 9.9
2014-Nov-17 11:31N 59°46' E 024°50'9 9.8
2014-Nov-17 10:33N 59°42' E 024°33'9 9.4
2014-Nov-17 09:34N 59°34' E 024°24'6 5.7
2014-Nov-17 08:31N 59°29' E 024°31'0 0.1
2014-Nov-17 07:25N 59°29' E 024°31'0 0.0
2014-Nov-17 06:28N 59°29' E 024°31'0 0.0
2014-Nov-17 05:31N 59°29' E 024°31'0 0.0
2014-Nov-17 04:31N 59°29' E 024°31'0 0.0
2014-Nov-17 03:31N 59°29' E 024°31'0 0.0
2014-Nov-17 02:31N 59°29' E 024°31'2 1.4
2014-Nov-17 01:27N 59°30' E 024°28'2210.8
2014-Nov-16 23:24N 59°26' E 023°45'173 6.3
2014-Nov-15 20:11N 57°15' E 020°10'13 7.4
2014-Nov-15 18:26N 57°10' E 019°48'8 8.7
2014-Nov-15 17:30N 57°06' E 019°34'6 2.1
2014-Nov-15 14:27N 57°00' E 019°36'2 1.9
2014-Nov-15 13:15N 56°58' E 019°38'173 7.6
2014-Nov-14 14:33N 55°32' E 015°07'18 9.2
2014-Nov-14 12:33N 55°23' E 014°39'10 9.9
2014-Nov-14 11:33N 55°15' E 014°28'10 9.6
2014-Nov-14 10:33N 55°07' E 014°17'76 9.5
2014-Nov-14 02:33N 54°35' E 012°18'1010.4
2014-Nov-14 01:33N 54°26' E 012°10'158 8.2
2014-Nov-13 06:11N 57°03' E 011°41'6 8.9
2014-Nov-13 05:33N 57°08' E 011°37'9 9.0
2014-Nov-13 04:33N 57°16' E 011°31'10 9.4
2014-Nov-13 03:33N 57°25' E 011°25'9 8.9
2014-Nov-13 02:33N 57°32' E 011°15'9 9.1
2014-Nov-13 01:33N 57°38' E 011°03'9 9.1
2014-Nov-13 00:33N 57°45' E 010°50'8 7.8
2014-Nov-12 23:33N 57°47' E 010°36'8 8.0
2014-Nov-12 22:30N 57°46' E 010°20'22 1.8
2014-Nov-12 10:06N 57°60' E 009°47'1 1.2
2014-Nov-12 09:19N 58°00' E 009°48'  

Dump ship's entire track history